Time;durP1;ratioP1;P1;durP2;ratioP2;P2;SDS_P1;SDS_P2;PMS_P1;PMS_P2;Temp;Humidity;BMP_temperature;BMP_pressure;BME280_temperature;BME280_humidity;BME280_pressure;Samples;Min_cycle;Max_cycle;Signal;HPM_P1;HPM_P2
2023/07/03 00:00:20;;;;;;;15.07;8.43;;;16.60;99.90;;;;;;5073701;28;20208;-81
2023/07/03 00:02:50;;;;;;;11.80;7.97;;;16.60;99.90;;;;;;5074295;28;20208;-81
2023/07/03 00:05:17;;;;;;;15.57;8.77;;;16.60;99.90;;;;;;5074293;28;20177;-80
2023/07/03 00:07:42;;;;;;;14.47;8.40;;;16.60;99.90;;;;;;5075329;28;20192;-81
2023/07/03 00:10:09;;;;;;;15.10;8.37;;;16.60;99.90;;;;;;5074706;28;20734;-81
2023/07/03 00:12:35;;;;;;;16.23;8.87;;;16.50;99.90;;;;;;5124098;22;20231;-81
2023/07/03 00:15:01;;;;;;;14.60;8.67;;;16.50;99.90;;;;;;5042709;28;20170;-81
2023/07/03 00:17:26;;;;;;;14.27;8.40;;;16.50;99.90;;;;;;5062089;28;20174;-81
2023/07/03 00:19:52;;;;;;;13.70;8.37;;;16.50;99.90;;;;;;5042222;28;20292;-80
2023/07/03 00:22:17;;;;;;;16.73;8.33;;;16.40;1.00;;;;;;5061306;28;20193;-80
2023/07/03 00:24:43;;;;;;;14.37;8.17;;;16.30;1.00;;;;;;5043139;28;20211;-80
2023/07/03 00:27:08;;;;;;;16.17;8.60;;;16.30;1.00;;;;;;5061010;28;20247;-80
2023/07/03 00:29:34;;;;;;;14.07;8.23;;;16.20;1.00;;;;;;5060362;28;20759;-81
2023/07/03 00:32:00;;;;;;;14.83;8.67;;;16.20;1.00;;;;;;5042236;28;20217;-81
2023/07/03 00:34:27;;;;;;;17.50;8.97;;;16.10;1.00;;;;;;5042507;28;20664;-83
2023/07/03 00:36:54;;;;;;;15.50;8.30;;;16.10;1.00;;;;;;5043305;28;20184;-80
2023/07/03 00:39:20;;;;;;;15.63;8.63;;;16.10;1.00;;;;;;5042706;28;20213;-81
2023/07/03 00:41:46;;;;;;;13.80;9.07;;;16.00;1.00;;;;;;5042077;28;20206;-81
2023/07/03 00:44:14;;;;;;;16.63;8.73;;;16.00;1.00;;;;;;5058871;28;20235;-80
2023/07/03 00:46:41;;;;;;;13.67;7.70;;;16.00;90.20;;;;;;5042286;28;20637;-81
2023/07/03 00:49:09;;;;;;;14.20;8.40;;;16.00;99.90;;;;;;5041962;28;20220;-82
2023/07/03 00:51:35;;;;;;;12.33;8.43;;;16.00;47.90;;;;;;5041922;28;20196;-80
2023/07/03 00:54:01;;;;;;;15.80;8.50;;;15.90;99.90;;;;;;5042520;28;20197;-83
2023/07/03 00:56:27;;;;;;;15.70;8.63;;;15.90;99.90;;;;;;5061427;28;20176;-81
2023/07/03 00:58:53;;;;;;;15.10;8.30;;;15.90;99.90;;;;;;5061021;28;20193;-80
2023/07/03 01:01:27;;;;;;;14.77;8.17;;;15.80;99.90;;;;;;5042016;28;20692;-80
2023/07/03 01:04:03;;;;;;;14.93;8.40;;;15.80;99.90;;;;;;5060333;28;20176;-80
2023/07/03 01:06:35;;;;;;;17.10;8.00;;;15.80;99.90;;;;;;5061555;28;20189;-80
2023/07/03 01:09:02;;;;;;;15.77;8.40;;;15.70;99.90;;;;;;5042209;28;20184;-80
2023/07/03 01:11:28;;;;;;;14.73;8.10;;;15.70;99.90;;;;;;5060044;28;20212;-83
2023/07/03 01:13:58;;;;;;;14.43;8.13;;;15.70;99.90;;;;;;5041682;28;20174;-82
2023/07/03 01:16:23;;;;;;;13.23;8.27;;;15.70;99.90;;;;;;5042719;28;20267;-80
2023/07/03 01:18:51;;;;;;;16.83;8.23;;;15.70;99.90;;;;;;5042222;28;20189;-81
2023/07/03 01:21:22;;;;;;;14.63;7.50;;;15.70;99.90;;;;;;5042311;28;20806;-81
2023/07/03 01:23:58;;;;;;;14.43;7.70;;;15.60;1.00;;;;;;5042683;28;20181;-80
2023/07/03 01:26:25;;;;;;;15.23;8.00;;;15.60;1.00;;;;;;5042363;28;20263;-81
2023/07/03 01:28:56;;;;;;;15.60;7.67;;;15.60;1.00;;;;;;5061320;28;20712;-81
2023/07/03 01:31:24;;;;;;;13.43;7.47;;;15.60;1.00;;;;;;5060421;28;20190;-80
2023/07/03 01:33:52;;;;;;;13.17;7.67;;;15.50;1.00;;;;;;5060707;28;20193;-80
2023/07/03 01:36:18;;;;;;;18.23;8.67;;;15.40;1.00;;;;;;5061596;28;20706;-81
2023/07/03 01:38:45;;;;;;;15.07;7.90;;;15.40;10.50;;;;;;5061311;28;20249;-80
2023/07/03 01:41:14;;;;;;;13.37;7.57;;;15.40;42.60;;;;;;5060448;28;20181;-83
2023/07/03 01:43:40;;;;;;;14.97;8.17;;;15.40;1.00;;;;;;5042342;28;20269;-80
2023/07/03 01:46:07;;;;;;;16.30;8.37;;;15.40;34.90;;;;;;5042753;28;20184;-80
2023/07/03 01:48:33;;;;;;;12.70;7.50;;;15.40;10.60;;;;;;5041791;28;20227;-83
2023/07/03 01:51:01;;;;;;;14.70;7.83;;;15.50;1.00;;;;;;5060377;28;20251;-80
2023/07/03 01:53:43;;;;;;;14.73;8.00;;;15.50;1.00;;;;;;5043281;28;20188;-80
2023/07/03 01:56:24;;;;;;;14.40;7.63;;;15.40;1.00;;;;;;5043812;28;20713;-81
2023/07/03 01:58:54;;;;;;;14.50;7.30;;;15.40;99.90;;;;;;5042890;28;20200;-82
2023/07/03 02:01:47;;;;;;;14.80;7.03;;;15.50;43.30;;;;;;5061747;28;20213;-83
2023/07/03 02:04:29;;;;;;;12.63;7.03;;;15.50;1.00;;;;;;5058885;28;20581;-82
2023/07/03 02:06:57;;;;;;;13.90;7.13;;;15.50;1.00;;;;;;5061446;28;20169;-81
2023/07/03 02:09:24;;;;;;;14.17;7.27;;;15.50;93.90;;;;;;5061019;28;20194;-81
2023/07/03 02:11:52;;;;;;;15.70;6.83;;;15.50;1.00;;;;;;5042372;28;20206;-80
2023/07/03 02:14:19;;;;;;;15.43;7.13;;;15.50;1.00;;;;;;5043363;28;20193;-81
2023/07/03 02:16:47;;;;;;;11.70;6.90;;;15.50;1.00;;;;;;5063009;28;20180;-82
2023/07/03 02:19:15;;;;;;;13.93;7.07;;;15.50;1.00;;;;;;5043947;28;20180;-80
2023/07/03 02:21:43;;;;;;;14.33;7.33;;;15.50;1.00;;;;;;5042750;28;20200;-81
2023/07/03 02:24:10;;;;;;;14.73;7.30;;;15.50;1.00;;;;;;5062611;28;20176;-81
2023/07/03 02:26:36;;;;;;;15.20;6.83;;;15.50;1.00;;;;;;5044203;28;20749;-81
2023/07/03 02:29:01;;;;;;;15.33;6.73;;;15.50;1.00;;;;;;5062794;28;20255;-80
2023/07/03 02:31:27;;;;;;;11.67;6.80;;;15.60;1.00;;;;;;5062128;28;20224;-82
2023/07/03 02:33:53;;;;;;;10.93;6.90;;;15.60;1.00;;;;;;5044663;28;20187;-80
2023/07/03 02:36:18;;;;;;;14.30;6.40;;;15.60;1.00;;;;;;5045499;28;20169;-80
2023/07/03 02:38:44;;;;;;;13.70;6.90;;;15.60;1.00;;;;;;5044964;28;20192;-82
2023/07/03 02:41:10;;;;;;;13.17;6.77;;;15.60;1.00;;;;;;5062253;28;20272;-81
2023/07/03 02:43:36;;;;;;;12.57;6.77;;;15.50;1.00;;;;;;5063861;28;20653;-83
2023/07/03 02:46:03;;;;;;;11.50;6.90;;;15.50;1.00;;;;;;5069776;28;20284;-80
2023/07/03 02:48:29;;;;;;;11.53;6.40;;;15.40;99.90;;;;;;5082489;28;20189;-80
2023/07/03 02:50:54;;;;;;;14.90;7.20;;;15.50;20.20;;;;;;5084622;28;20197;-81
2023/07/03 02:53:20;;;;;;;11.70;6.73;;;15.50;1.00;;;;;;5085017;28;20273;-81
2023/07/03 02:55:50;;;;;;;11.33;6.93;;;15.50;78.50;;;;;;5049636;28;20180;-81
2023/07/03 02:58:17;;;;;;;12.50;6.33;;;15.50;99.90;;;;;;5086228;28;20176;-80
2023/07/03 03:00:42;;;;;;;13.47;6.47;;;15.50;99.90;;;;;;5065491;28;20189;-83
2023/07/03 03:03:08;;;;;;;12.33;6.67;;;15.40;99.90;;;;;;5064789;28;20221;-81
2023/07/03 03:05:34;;;;;;;13.50;6.90;;;15.40;99.90;;;;;;5063842;28;20189;-81
2023/07/03 03:07:59;;;;;;;16.33;6.73;;;15.40;99.90;;;;;;5069081;28;20178;-82
2023/07/03 03:10:25;;;;;;;13.70;6.67;;;15.40;99.90;;;;;;5068058;28;20228;-81
2023/07/03 03:12:50;;;;;;;11.53;6.83;;;15.30;1.00;;;;;;5069766;28;20206;-81
2023/07/03 03:15:18;;;;;;;13.43;6.63;;;15.20;1.00;;;;;;5072688;28;20192;-81
2023/07/03 03:17:44;;;;;;;15.43;6.73;;;15.30;1.00;;;;;;5073898;28;20169;-83
2023/07/03 03:20:13;;;;;;;14.93;7.10;;;15.30;1.00;;;;;;5073741;28;20173;-81
2023/07/03 03:22:42;;;;;;;14.47;7.30;;;15.30;88.60;;;;;;5075365;28;20226;-83
2023/07/03 03:25:08;;;;;;;13.23;6.87;;;15.20;99.90;;;;;;5075188;28;20270;-83
2023/07/03 03:27:33;;;;;;;12.93;6.80;;;15.10;1.00;;;;;;5091740;28;20181;-84
2023/07/03 03:29:59;;;;;;;14.83;7.07;;;15.00;99.90;;;;;;5075557;28;20208;-82
2023/07/03 03:32:24;;;;;;;13.70;6.70;;;14.90;1.00;;;;;;5077591;28;20187;-84
2023/07/03 03:34:50;;;;;;;14.53;7.10;;;14.70;1.00;;;;;;5095367;28;20169;-84
2023/07/03 03:37:16;;;;;;;12.80;6.53;;;14.50;1.00;;;;;;5084113;28;20616;-82
2023/07/03 03:39:42;;;;;;;13.10;6.97;;;14.40;99.90;;;;;;5070967;28;20177;-83
2023/07/03 03:42:09;;;;;;;10.73;6.10;;;14.40;99.90;;;;;;5062611;28;20584;-81
2023/07/03 03:44:35;;;;;;;13.30;6.70;;;14.30;99.90;;;;;;5061247;28;20230;-82
2023/07/03 03:47:02;;;;;;;11.57;6.73;;;14.20;1.00;;;;;;5061373;28;20613;-81
2023/07/03 03:49:28;;;;;;;10.77;6.87;;;14.20;1.00;;;;;;5063789;28;20200;-82
2023/07/03 03:51:53;;;;;;;9.80;6.47;;;14.40;99.90;;;;;;5061557;28;20200;-80
2023/07/03 03:54:20;;;;;;;13.00;7.07;;;14.30;99.90;;;;;;5062346;28;20176;-81
2023/07/03 03:56:45;;;;;;;13.57;6.30;;;14.40;1.00;;;;;;5060311;28;20169;-83
2023/07/03 03:59:11;;;;;;;12.97;7.20;;;14.40;32.20;;;;;;5058918;28;20173;-82
2023/07/03 04:01:36;;;;;;;13.70;7.33;;;14.40;99.90;;;;;;5058001;28;20246;-83
2023/07/03 04:04:02;;;;;;;13.23;6.73;;;14.40;81.70;;;;;;5077367;28;20169;-83
2023/07/03 04:06:28;;;;;;;16.27;7.80;;;14.40;1.00;;;;;;5059281;28;20173;-81
2023/07/03 04:08:58;;;;;;;13.57;7.43;;;14.40;99.90;;;;;;5075708;28;20176;-80
2023/07/03 04:11:24;;;;;;;13.13;7.50;;;14.40;99.90;;;;;;5076829;28;20287;-81
2023/07/03 04:13:50;;;;;;;15.53;7.40;;;14.40;99.90;;;;;;5060433;28;20260;-83
2023/07/03 04:16:16;;;;;;;14.47;7.23;;;14.50;1.00;;;;;;5080217;28;20215;-83
2023/07/03 04:18:41;;;;;;;15.47;7.37;;;14.50;1.00;;;;;;5078373;28;20169;-85
2023/07/03 04:21:07;;;;;;;15.70;7.90;;;14.50;1.00;;;;;;5077316;28;20173;-83
2023/07/03 04:23:32;;;;;;;12.07;7.00;;;14.60;1.00;;;;;;5080561;28;20173;-83
2023/07/03 04:25:59;;;;;;;12.87;6.87;;;14.60;1.00;;;;;;5077730;28;20184;-83
2023/07/03 04:28:25;;;;;;;11.60;7.40;;;14.60;1.00;;;;;;5079863;28;20176;-83
2023/07/03 04:30:50;;;;;;;13.90;7.00;;;14.70;1.00;;;;;;5076659;28;20200;-83
2023/07/03 04:33:16;;;;;;;12.93;7.20;;;14.70;99.90;;;;;;5067023;28;20201;-83
2023/07/03 04:35:42;;;;;;;12.13;7.23;;;14.80;1.00;;;;;;5058828;28;20172;-84
2023/07/03 04:38:08;;;;;;;15.17;7.77;;;14.90;1.00;;;;;;5060645;28;20169;-83
2023/07/03 04:40:34;;;;;;;13.20;7.10;;;14.90;99.90;;;;;;5059515;28;20219;-84
2023/07/03 04:43:00;;;;;;;14.20;7.33;;;15.00;99.90;;;;;;5059630;28;20201;-83
2023/07/03 04:45:27;;;;;;;13.03;6.97;;;15.00;1.00;;;;;;5077043;28;20177;-83
2023/07/03 04:47:53;;;;;;;14.50;7.20;;;15.10;1.00;;;;;;5060198;28;20268;-83
2023/07/03 04:50:22;;;;;;;15.77;7.63;;;15.10;21.50;;;;;;5059920;28;20251;-84
2023/07/03 04:52:49;;;;;;;13.57;7.23;;;15.10;1.00;;;;;;5076369;28;20239;-83
2023/07/03 04:55:17;;;;;;;13.37;7.03;;;15.20;1.00;;;;;;5077815;28;20169;-83
2023/07/03 04:57:43;;;;;;;17.57;7.57;;;15.20;38.10;;;;;;5060432;28;20171;-83
2023/07/03 05:00:15;;;;;;;13.67;7.60;;;15.30;18.20;;;;;;5077874;28;20205;-83
2023/07/03 05:02:44;;;;;;;14.67;7.33;;;15.30;26.80;;;;;;5078411;28;20192;-83
2023/07/03 05:05:10;;;;;;;15.60;7.07;;;15.40;8.60;;;;;;5079428;28;20180;-84
2023/07/03 05:07:40;;;;;;;12.83;6.73;;;15.50;99.90;;;;;;5059810;28;20184;-83
2023/07/03 05:10:07;;;;;;;13.57;7.10;;;15.50;1.00;;;;;;5078183;28;20566;-84
2023/07/03 05:12:33;;;;;;;16.73;7.40;;;15.60;1.00;;;;;;5077765;28;20208;-83
2023/07/03 05:14:59;;;;;;;14.63;6.87;;;15.70;1.00;;;;;;5060955;28;20199;-83
2023/07/03 05:17:24;;;;;;;15.43;7.20;;;15.70;1.00;;;;;;5060272;28;20165;-84
2023/07/03 05:19:50;;;;;;;12.67;6.50;;;15.60;1.00;;;;;;5079063;28;20165;-84
2023/07/03 05:22:16;;;;;;;10.93;6.20;;;15.60;99.90;;;;;;5060281;28;20249;-83
2023/07/03 05:24:41;;;;;;;12.73;6.00;;;15.70;1.00;;;;;;5078943;28;20229;-83
2023/07/03 05:27:07;;;;;;;13.67;6.00;;;15.80;1.00;;;;;;5077038;28;20180;-83
2023/07/03 05:29:33;;;;;;;12.97;6.20;;;15.70;1.00;;;;;;5078766;28;20232;-84
2023/07/03 05:32:00;;;;;;;11.87;6.67;;;15.70;99.90;;;;;;5077905;28;20185;-83
2023/07/03 05:34:29;;;;;;;12.20;5.27;;;15.70;99.90;;;;;;5079212;28;20195;-83
2023/07/03 05:36:56;;;;;;;12.60;5.93;;;15.70;1.00;;;;;;5079929;28;20238;-84
2023/07/03 05:39:22;;;;;;;12.97;5.77;;;15.80;1.00;;;;;;5078193;28;20644;-83
2023/07/03 05:41:47;;;;;;;15.40;5.37;;;15.80;99.90;;;;;;5060721;28;20276;-82
2023/07/03 05:44:13;;;;;;;9.47;5.10;;;15.80;1.00;;;;;;5078737;28;20177;-83
2023/07/03 05:46:38;;;;;;;11.73;4.67;;;15.80;99.90;;;;;;5081593;28;20192;-83
2023/07/03 05:49:04;;;;;;;12.37;4.27;;;15.80;1.00;;;;;;5062054;28;20181;-83
2023/07/03 05:51:30;;;;;;;11.73;4.60;;;15.80;1.00;;;;;;5061635;28;20247;-84
2023/07/03 05:53:55;;;;;;;8.10;3.73;;;15.90;99.90;;;;;;5081615;28;20226;-85
2023/07/03 05:56:21;;;;;;;10.70;4.90;;;15.90;1.00;;;;;;5080173;28;20204;-83
2023/07/03 05:58:46;;;;;;;8.77;3.63;;;15.90;1.00;;;;;;5063141;28;20222;-83
2023/07/03 06:01:12;;;;;;;7.80;3.83;;;15.90;1.00;;;;;;5062992;28;20177;-83
2023/07/03 06:03:42;;;;;;;10.00;3.80;;;15.90;99.90;;;;;;5062438;28;20192;-85
2023/07/03 06:06:08;;;;;;;7.90;4.57;;;15.90;99.90;;;;;;5082698;28;20176;-83
2023/07/03 06:08:34;;;;;;;8.20;3.83;;;16.00;99.90;;;;;;5082958;28;20183;-84
2023/07/03 06:10:59;;;;;;;6.67;4.00;;;16.00;99.90;;;;;;5079934;28;20204;-83
2023/07/03 06:13:25;;;;;;;6.53;4.00;;;16.00;99.90;;;;;;5063736;22;20244;-83
2023/07/03 06:15:51;;;;;;;10.70;4.20;;;16.00;99.90;;;;;;5052109;28;20209;-81
2023/07/03 06:18:16;;;;;;;10.97;3.67;;;16.00;99.90;;;;;;5034422;28;20218;-84
2023/07/03 06:20:42;;;;;;;8.83;3.50;;;16.00;99.90;;;;;;5033807;28;20176;-83
2023/07/03 06:23:07;;;;;;;10.70;3.93;;;16.00;99.90;;;;;;5037878;28;20198;-83
2023/07/03 06:25:33;;;;;;;10.87;3.77;;;16.00;99.90;;;;;;5014552;28;20193;-82
2023/07/03 06:27:59;;;;;;;11.00;4.10;;;15.90;99.90;;;;;;5032032;28;20198;-82
2023/07/03 06:30:24;;;;;;;8.87;3.63;;;15.90;99.90;;;;;;5031421;28;20271;-83
2023/07/03 06:32:50;;;;;;;7.43;3.70;;;15.90;99.90;;;;;;5014859;28;20194;-80
2023/07/03 06:35:17;;;;;;;10.73;4.30;;;15.90;99.90;;;;;;5032024;28;20312;-82
2023/07/03 06:37:42;;;;;;;9.10;3.47;;;15.90;99.90;;;;;;5032161;28;20178;-82
2023/07/03 06:40:14;;;;;;;8.77;3.87;;;15.90;99.90;;;;;;5014059;28;20178;-83
2023/07/03 06:42:40;;;;;;;8.10;3.70;;;15.90;99.90;;;;;;5017214;28;20200;-83
2023/07/03 06:45:06;;;;;;;12.37;3.93;;;15.90;1.00;;;;;;5036391;28;20178;-84
2023/07/03 06:47:31;;;;;;;8.73;3.90;;;15.90;22.10;;;;;;5018385;28;20273;-83
2023/07/03 06:49:57;;;;;;;11.47;3.67;;;16.00;9.30;;;;;;5016553;28;20292;-82
2023/07/03 06:52:23;;;;;;;11.47;3.90;;;16.00;1.00;;;;;;5017930;28;20198;-82
2023/07/03 06:54:48;;;;;;;11.00;4.03;;;16.10;1.00;;;;;;5035915;28;20656;-81
2023/07/03 06:57:14;;;;;;;8.47;3.33;;;16.10;9.90;;;;;;5018170;28;20171;-85
2023/07/03 06:59:39;;;;;;;13.23;4.03;;;16.10;1.00;;;;;;5035299;28;20652;-83
2023/07/03 07:02:06;;;;;;;13.47;3.90;;;16.20;1.00;;;;;;5035562;28;20198;-82
2023/07/03 07:04:32;;;;;;;9.83;3.87;;;16.30;58.10;;;;;;5035742;28;20252;-83
2023/07/03 07:06:57;;;;;;;10.70;3.20;;;16.40;1.00;;;;;;5035880;28;20178;-82
2023/07/03 07:09:23;;;;;;;7.53;3.53;;;16.50;99.90;;;;;;5035617;28;20202;-82
2023/07/03 07:11:49;;;;;;;9.43;3.50;;;16.50;1.00;;;;;;5034936;28;20206;-80
2023/07/03 07:14:15;;;;;;;7.57;3.30;;;16.60;99.90;;;;;;5018123;28;20171;-81
2023/07/03 07:16:42;;;;;;;8.07;2.73;;;16.70;99.90;;;;;;5035466;28;20170;-81
2023/07/03 07:19:09;;;;;;;7.17;3.20;;;16.70;91.50;;;;;;5017830;28;20198;-81
2023/07/03 07:21:43;;;;;;;9.90;3.40;;;16.70;99.90;;;;;;5017096;28;20664;-81
2023/07/03 07:24:18;;;;;;;8.83;3.03;;;16.70;99.90;;;;;;5035622;28;20656;-81
2023/07/03 07:26:44;;;;;;;6.13;2.93;;;16.70;99.90;;;;;;5017569;28;20659;-81
2023/07/03 07:29:10;;;;;;;8.27;3.10;;;16.70;99.90;;;;;;5017608;28;20262;-80
2023/07/03 07:31:37;;;;;;;10.20;2.90;;;16.70;99.90;;;;;;5017048;28;20262;-82
2023/07/03 07:34:05;;;;;;;6.40;2.83;;;16.70;84.00;;;;;;5017814;28;20170;-80
2023/07/03 07:36:32;;;;;;;8.67;2.90;;;16.70;99.90;;;;;;5035153;28;20205;-81
2023/07/03 07:38:59;;;;;;;9.20;2.90;;;16.60;99.90;;;;;;5017516;28;20170;-81
2023/07/03 07:41:24;;;;;;;8.93;2.97;;;16.60;99.90;;;;;;5016482;28;20550;-80
2023/07/03 07:43:51;;;;;;;10.57;3.23;;;16.50;99.90;;;;;;5016358;28;20182;-82
2023/07/03 07:46:17;;;;;;;8.97;3.57;;;16.40;99.90;;;;;;5035003;28;20171;-81
2023/07/03 07:48:43;;;;;;;8.33;2.90;;;16.40;12.50;;;;;;5034901;28;20178;-81
2023/07/03 07:51:10;;;;;;;8.50;3.00;;;16.60;1.00;;;;;;5034184;28;20209;-81
2023/07/03 07:53:37;;;;;;;7.33;2.80;;;16.70;1.00;;;;;;5016892;28;20665;-81
2023/07/03 07:56:03;;;;;;;7.93;2.90;;;16.70;1.00;;;;;;5034878;28;20202;-81
2023/07/03 07:58:29;;;;;;;7.03;2.83;;;16.80;1.00;;;;;;5017089;28;20170;-81
2023/07/03 08:00:58;;;;;;;7.77;3.00;;;17.00;1.00;;;;;;5016550;28;20667;-81
2023/07/03 08:03:25;;;;;;;6.77;2.30;;;17.20;1.00;;;;;;5016805;28;20220;-80
2023/07/03 08:05:59;;;;;;;9.00;2.70;;;17.40;99.90;;;;;;5017305;28;20646;-81
2023/07/03 08:08:26;;;;;;;7.77;2.63;;;17.50;99.90;;;;;;5017015;28;20177;-81
2023/07/03 08:10:53;;;;;;;8.43;3.00;;;17.60;99.90;;;;;;5034030;28;20217;-81
2023/07/03 08:13:18;;;;;;;6.70;2.90;;;17.60;99.90;;;;;;5016551;28;20666;-81
2023/07/03 08:15:47;;;;;;;5.27;2.57;;;17.70;99.90;;;;;;5017169;28;20266;-81
2023/07/03 08:18:15;;;;;;;5.93;2.73;;;17.80;99.90;;;;;;5034915;28;20183;-81
2023/07/03 08:20:40;;;;;;;4.80;2.50;;;17.90;26.20;;;;;;5016131;28;20175;-82
2023/07/03 08:23:06;;;;;;;8.80;2.50;;;18.10;1.00;;;;;;5016719;28;20206;-81
2023/07/03 08:25:31;;;;;;;6.47;2.37;;;18.00;1.00;;;;;;5016621;28;20174;-82
2023/07/03 08:27:57;;;;;;;7.13;2.40;;;18.20;1.00;;;;;;5034107;28;20183;-82
2023/07/03 08:30:23;;;;;;;5.73;2.57;;;18.30;1.00;;;;;;5033749;28;20206;-81
2023/07/03 08:32:48;;;;;;;7.50;2.63;;;18.40;1.00;;;;;;5016480;28;20201;-81
2023/07/03 08:35:16;;;;;;;5.07;2.07;;;18.60;1.00;;;;;;5034238;28;20518;-82
2023/07/03 08:37:41;;;;;;;8.00;2.30;;;18.70;1.00;;;;;;5016447;28;20177;-81
2023/07/03 08:40:08;;;;;;;7.57;2.20;;;18.70;1.00;;;;;;5033402;28;20174;-81
2023/07/03 08:42:39;;;;;;;5.10;2.53;;;19.00;1.00;;;;;;5015525;28;20198;-81
2023/07/03 08:45:10;;;;;;;5.50;2.20;;;19.10;1.00;;;;;;5016307;28;20185;-81
2023/07/03 08:47:36;;;;;;;5.73;2.30;;;19.00;1.00;;;;;;5034242;28;20178;-81
2023/07/03 08:50:03;;;;;;;6.23;2.60;;;19.00;1.00;;;;;;5015701;28;20559;-81
2023/07/03 08:52:43;;;;;;;5.73;2.40;;;18.90;99.90;;;;;;5016091;28;20575;-81
2023/07/03 08:55:17;;;;;;;5.90;2.23;;;18.60;99.90;;;;;;5016332;28;20177;-81
2023/07/03 08:57:42;;;;;;;5.93;2.20;;;18.30;99.90;;;;;;5016293;28;20185;-81
2023/07/03 09:00:11;;;;;;;4.67;1.97;;;18.30;99.90;;;;;;5015624;28;20182;-81
2023/07/03 09:03:17;;;;;;;4.23;1.93;;;18.30;1.00;;;;;;5033798;28;20194;-81
2023/07/03 09:06:01;;;;;;;5.10;2.00;;;18.60;1.00;;;;;;5033253;28;20680;-81
2023/07/03 09:08:35;;;;;;;5.60;2.67;;;19.00;99.90;;;;;;5033554;28;20181;-82
2023/07/03 09:11:01;;;;;;;6.93;2.20;;;19.10;99.90;;;;;;5015143;28;20205;-82
2023/07/03 09:13:39;;;;;;;7.87;2.40;;;19.50;99.90;;;;;;5033515;28;20209;-81
2023/07/03 09:16:23;;;;;;;6.43;2.20;;;19.80;99.90;;;;;;5033656;28;20232;-81
2023/07/03 09:18:55;;;;;;;5.73;2.27;;;20.20;99.90;;;;;;5015671;28;20209;-82
2023/07/03 09:21:23;;;;;;;4.90;2.40;;;19.90;99.90;;;;;;5015111;28;20185;-80
2023/07/03 09:24:09;;;;;;;5.77;2.30;;;19.70;99.90;;;;;;5015453;28;20197;-81
2023/07/03 09:26:56;;;;;;;5.73;2.40;;;19.70;99.90;;;;;;5015633;28;20653;-81
2023/07/03 09:29:23;;;;;;;4.23;2.47;;;19.60;99.90;;;;;;5033370;28;20257;-80
2023/07/03 09:31:48;;;;;;;7.20;2.40;;;19.50;99.90;;;;;;5014841;28;20190;-82
2023/07/03 09:34:14;;;;;;;8.60;2.73;;;19.50;1.00;;;;;;5015547;28;20261;-82
2023/07/03 09:36:43;;;;;;;6.03;3.00;;;19.60;1.00;;;;;;5033111;28;20208;-82
2023/07/03 09:39:18;;;;;;;7.33;2.37;;;19.50;1.00;;;;;;5033183;28;20297;-81
2023/07/03 09:41:44;;;;;;;5.33;2.23;;;19.60;1.00;;;;;;5014830;28;20663;-81
2023/07/03 09:44:13;;;;;;;7.63;2.70;;;19.50;1.00;;;;;;5013617;28;20712;-81
2023/07/03 09:46:40;;;;;;;6.97;2.63;;;19.10;1.00;;;;;;5015061;28;20170;-81
2023/07/03 09:49:13;;;;;;;7.70;2.60;;;19.00;1.00;;;;;;5015244;28;20176;-81
2023/07/03 09:51:39;;;;;;;7.73;2.60;;;19.00;1.00;;;;;;5032130;28;20699;-81
2023/07/03 09:54:07;;;;;;;6.00;2.60;;;18.80;1.00;;;;;;5032861;28;20166;-81
2023/07/03 09:56:33;;;;;;;7.20;2.60;;;18.90;1.00;;;;;;5015262;28;20179;-82
2023/07/03 09:59:01;;;;;;;7.50;3.10;;;18.90;1.00;;;;;;5015291;28;20614;-81
2023/07/03 10:01:29;;;;;;;5.97;2.40;;;18.80;1.00;;;;;;5014546;28;20240;-82
2023/07/03 10:04:05;;;;;;;8.43;2.90;;;18.70;1.00;;;;;;5032835;28;20690;-81
2023/07/03 10:06:31;;;;;;;8.20;2.90;;;18.60;1.00;;;;;;5033242;28;20243;-81
2023/07/03 10:09:04;;;;;;;6.53;2.97;;;18.40;1.00;;;;;;5032566;28;20521;-82
2023/07/03 10:11:39;;;;;;;7.70;2.97;;;18.70;1.00;;;;;;5033720;28;20206;-82
2023/07/03 10:14:08;;;;;;;6.47;2.50;;;19.20;1.00;;;;;;5019030;28;20165;-82
2023/07/03 10:16:36;;;;;;;5.37;2.57;;;19.60;1.00;;;;;;5016867;28;20174;-82
2023/07/03 10:19:03;;;;;;;6.17;2.23;;;20.00;1.00;;;;;;5032631;28;20170;-82
2023/07/03 10:21:30;;;;;;;6.10;2.77;;;20.10;1.00;;;;;;5013981;28;20205;-82
2023/07/03 10:23:58;;;;;;;5.47;2.37;;;19.90;1.00;;;;;;5033530;28;20257;-82
2023/07/03 10:26:29;;;;;;;5.00;2.57;;;19.70;1.00;;;;;;5018281;28;20529;-81
2023/07/03 10:29:10;;;;;;;4.90;2.33;;;19.80;1.00;;;;;;5016928;28;20197;-81
2023/07/03 10:31:51;;;;;;;4.43;2.37;;;19.80;1.00;;;;;;5014297;28;20738;-81
2023/07/03 10:34:22;;;;;;;4.13;2.37;;;19.70;1.00;;;;;;5032315;28;20177;-82
2023/07/03 10:36:54;;;;;;;6.03;2.60;;;19.50;1.00;;;;;;5032379;28;20182;-82
2023/07/03 10:39:32;;;;;;;4.53;2.10;;;19.30;1.00;;;;;;5014450;28;20265;-81
2023/07/03 10:42:02;;;;;;;6.53;2.50;;;19.10;1.00;;;;;;5012832;28;20194;-80
2023/07/03 10:44:32;;;;;;;5.67;2.40;;;19.00;1.00;;;;;;5032288;28;20171;-81
2023/07/03 10:47:46;;;;;;;5.27;2.50;;;19.00;1.00;;;;;;5014700;28;20174;-81
2023/07/03 10:50:13;;;;;;;5.70;2.40;;;19.10;1.00;;;;;;4996095;28;20209;-81
2023/07/03 10:53:00;;;;;;;3.00;2.10;;;19.30;1.00;;;;;;5032485;28;20199;-81
2023/07/03 10:55:33;;;;;;;3.77;2.10;;;19.70;99.90;;;;;;5014426;28;20649;-81
2023/07/03 10:58:26;;;;;;;3.80;1.83;;;19.70;99.90;;;;;;5014437;28;20179;-81
2023/07/03 11:00:57;;;;;;;5.00;2.60;;;19.70;99.90;;;;;;5013722;28;20185;-81
2023/07/03 11:03:42;;;;;;;4.50;2.10;;;20.10;99.90;;;;;;5031325;28;20202;-80
2023/07/03 11:06:21;;;;;;;6.23;2.30;;;20.40;99.90;;;;;;5014580;28;20257;-85
2023/07/03 11:09:08;;;;;;;4.78;2.00;;;20.90;99.90;;;;;;5015592;28;20269;-82
2023/07/03 11:11:42;;;;;;;4.60;2.10;;;20.90;99.90;;;;;;5031120;28;20289;-81
2023/07/03 11:14:29;;;;;;;5.50;2.20;;;20.50;99.90;;;;;;5014430;28;20173;-81
2023/07/03 11:17:07;;;;;;;6.57;2.83;;;20.30;99.90;;;;;;5015093;28;20225;-81
2023/07/03 11:19:46;;;;;;;4.47;2.00;;;20.40;99.90;;;;;;5014328;28;20549;-81
2023/07/03 11:22:34;;;;;;;4.65;2.25;;;20.70;99.90;;;;;;5031796;28;20201;-81
2023/07/03 11:25:34;;;;;;;3.93;2.07;;;20.60;99.90;;;;;;5014371;28;20261;-81
2023/07/03 11:28:28;;;;;;;4.40;2.35;;;20.50;99.90;;;;;;5016287;28;20194;-81
2023/07/03 11:30:55;;;;;;;4.80;2.45;;;20.80;99.90;;;;;;5017413;28;20190;-81
2023/07/03 11:33:21;;;;;;;7.00;2.55;;;21.00;99.90;;;;;;5035376;28;20678;-81
2023/07/03 11:35:59;;;;;;;5.28;2.33;;;21.20;99.90;;;;;;5035253;28;20676;-82
2023/07/03 11:38:26;;;;;;;4.93;2.53;;;21.30;99.90;;;;;;5035579;28;20174;-81
2023/07/03 11:40:55;;;;;;;5.43;2.03;;;21.20;99.90;;;;;;5034678;28;20292;-81
2023/07/03 11:43:21;;;;;;;4.53;2.17;;;21.00;99.90;;;;;;5035206;28;20191;-81
2023/07/03 11:45:55;;;;;;;4.75;2.55;;;21.20;99.90;;;;;;5035793;28;20550;-81
2023/07/03 11:48:30;;;;;;;4.35;2.17;;;21.60;99.90;;;;;;5017640;28;20170;-82
2023/07/03 11:51:02;;;;;;;4.13;2.20;;;21.80;99.90;;;;;;5016760;28;20702;-81
2023/07/03 11:53:37;;;;;;;4.88;2.35;;;21.70;99.90;;;;;;5035287;28;20203;-81
2023/07/03 11:56:05;;;;;;;4.30;2.53;;;21.40;99.90;;;;;;5017607;28;20174;-81
2023/07/03 11:58:35;;;;;;;4.72;2.55;;;21.30;99.90;;;;;;5017360;28;20171;-81
2023/07/03 12:01:29;;;;;;;4.05;2.58;;;21.70;99.90;;;;;;5034434;28;20198;-81
2023/07/03 12:04:04;;;;;;;6.25;2.75;;;22.20;99.90;;;;;;5034976;28;20767;-82
2023/07/03 12:06:39;;;;;;;4.47;2.28;;;21.80;99.90;;;;;;5035229;28;20166;-81
2023/07/03 12:09:32;;;;;;;5.78;2.80;;;21.50;99.90;;;;;;5017323;28;20170;-81
2023/07/03 12:12:00;;;;;;;4.95;2.42;;;21.60;99.90;;;;;;5035307;28;20727;-81
2023/07/03 12:14:52;;;;;;;5.35;2.40;;;21.70;99.90;;;;;;5034974;28;20270;-81
2023/07/03 12:17:26;;;;;;;4.55;2.30;;;21.70;99.90;;;;;;5034716;28;20645;-81
2023/07/03 12:20:05;;;;;;;6.13;2.80;;;21.80;99.90;;;;;;5016355;28;20209;-80
2023/07/03 12:22:35;;;;;;;6.38;2.53;;;21.80;99.90;;;;;;5034500;28;20194;-81
2023/07/03 12:25:12;;;;;;;4.88;2.47;;;22.10;99.90;;;;;;5017002;28;20170;-81
2023/07/03 12:27:39;;;;;;;5.00;2.50;;;22.20;99.90;;;;;;5034772;28;20154;-81
2023/07/03 12:30:26;;;;;;;3.55;2.40;;;21.80;99.90;;;;;;5016194;28;20174;-81
2023/07/03 12:32:54;;;;;;;5.05;2.38;;;21.60;99.90;;;;;;5034220;28;20194;-81
2023/07/03 12:35:27;;;;;;;3.85;2.45;;;21.70;99.90;;;;;;5034405;28;20166;-81
2023/07/03 12:37:58;;;;;;;6.13;2.55;;;21.90;99.90;;;;;;5034240;28;20603;-81
2023/07/03 12:40:25;;;;;;;5.10;2.67;;;21.80;99.90;;;;;;5015038;28;20195;-81
2023/07/03 12:42:52;;;;;;;3.78;2.38;;;21.70;99.90;;;;;;5034182;28;20286;-81
2023/07/03 12:45:29;;;;;;;6.53;2.90;;;21.40;99.90;;;;;;5016342;28;20171;-82
2023/07/03 12:48:16;;;;;;;5.50;2.70;;;21.40;99.90;;;;;;5016148;28;20265;-87
2023/07/03 12:50:45;;;;;;;5.63;2.90;;;21.90;99.90;;;;;;5033369;28;20201;-81
2023/07/03 12:53:11;;;;;;;5.75;2.33;;;22.10;99.90;;;;;;5033984;28;20754;-79
2023/07/03 12:55:38;;;;;;;6.20;2.78;;;22.10;99.90;;;;;;5016188;28;20174;-81